createdAt,value
2022-08-14T00:01:54.821Z,48.34
2022-08-14T00:04:34.741Z,48.26
2022-08-14T00:07:10.592Z,48.24
2022-08-14T00:09:55.161Z,48.45
2022-08-14T00:12:34.098Z,48.71
2022-08-14T00:15:21.775Z,48.58
2022-08-14T00:17:53.266Z,48.39
2022-08-14T00:20:23.995Z,48.18
2022-08-14T00:23:12.182Z,48.37
2022-08-14T00:25:43.931Z,48.38
2022-08-14T00:28:29.088Z,48.42
2022-08-14T00:31:00.563Z,48.41
2022-08-14T00:33:51.038Z,48.56
2022-08-14T00:36:35.992Z,48.61
2022-08-14T00:39:06.650Z,48.59
2022-08-14T00:41:39.184Z,48.58
2022-08-14T00:44:07.369Z,48.69
2022-08-14T00:46:37.729Z,49.03
2022-08-14T00:49:06.194Z,48.90
2022-08-14T00:51:37.896Z,49.12
2022-08-14T00:54:11.134Z,49.23
2022-08-14T00:56:55.220Z,49.28
2022-08-14T00:59:28.447Z,49.56
2022-08-14T01:01:58.272Z,49.70
2022-08-14T01:04:38.188Z,49.81
2022-08-14T01:07:19.777Z,50.31
2022-08-14T01:09:53.196Z,50.05
2022-08-14T01:12:27.040Z,49.98
2022-08-14T01:14:59.119Z,49.92
2022-08-14T01:17:49.785Z,50.26
2022-08-14T01:20:39.577Z,49.86
2022-08-14T01:23:16.461Z,50.27
2022-08-14T01:25:48.762Z,50.05
2022-08-14T01:28:34.298Z,49.84
2022-08-14T01:31:08.597Z,49.86
2022-08-14T01:33:44.697Z,49.78
2022-08-14T01:36:27.986Z,49.85
2022-08-14T01:38:58.993Z,49.54
2022-08-14T01:41:30.103Z,49.75
2022-08-14T01:44:01.660Z,49.79
2022-08-14T01:46:36.653Z,49.93
2022-08-14T01:49:10.044Z,49.60
2022-08-14T01:51:39.309Z,49.93
2022-08-14T01:54:11.129Z,49.87
2022-08-14T01:56:42.844Z,49.84
2022-08-14T01:59:18.526Z,50.07
2022-08-14T02:01:58.692Z,49.88
2022-08-14T02:04:54.804Z,49.79
2022-08-14T02:07:34.280Z,49.83
2022-08-14T02:10:13.116Z,49.80
2022-08-14T02:12:46.189Z,49.98
2022-08-14T02:15:22.063Z,50.02
2022-08-14T02:17:50.136Z,50.24
2022-08-14T02:20:23.801Z,50.38
2022-08-14T02:22:54.500Z,50.32
2022-08-14T02:25:23.435Z,50.21
2022-08-14T02:28:23.643Z,50.28
2022-08-14T02:30:44.616Z,50.40
2022-08-14T02:33:12.809Z,50.34
2022-08-14T02:35:43.347Z,50.00
2022-08-14T02:38:11.893Z,50.02
2022-08-14T02:40:58.622Z,49.95
2022-08-14T02:43:36.447Z,49.94
2022-08-14T02:46:09.453Z,50.11
2022-08-14T02:49:04.066Z,50.13
2022-08-14T02:51:30.268Z,50.23
2022-08-14T02:53:58.491Z,50.56
2022-08-14T02:56:29.968Z,50.47
2022-08-14T02:59:17.118Z,50.65
2022-08-14T03:01:50.981Z,50.74
2022-08-14T03:04:22.932Z,50.53
2022-08-14T03:06:58.239Z,50.70
2022-08-14T03:10:25.089Z,50.66
2022-08-14T03:12:32.467Z,50.80
2022-08-14T03:15:13.949Z,50.71
2022-08-14T03:17:57.807Z,50.80
2022-08-14T03:20:28.692Z,50.72
2022-08-14T03:22:59.382Z,50.91
2022-08-14T03:25:33.275Z,51.06
2022-08-14T03:28:07.105Z,51.07
2022-08-14T03:30:39.014Z,51.56
2022-08-14T03:33:10.954Z,51.51
2022-08-14T03:36:05.552Z,51.67
2022-08-14T03:39:14.472Z,51.54
2022-08-14T03:41:18.212Z,51.54
2022-08-14T03:43:57.007Z,51.74
2022-08-14T03:46:38.753Z,51.54
2022-08-14T03:49:14.016Z,51.76
2022-08-14T03:51:51.975Z,52.07
2022-08-14T03:54:21.271Z,51.91
2022-08-14T03:56:50.181Z,52.00
2022-08-14T03:59:18.281Z,51.96
2022-08-14T04:02:01.668Z,52.17
2022-08-14T04:04:31.398Z,52.47
2022-08-14T04:07:00.435Z,52.30
2022-08-14T04:09:27.851Z,52.59
2022-08-14T04:11:56.187Z,52.68
2022-08-14T04:14:25.407Z,53.41
2022-08-14T04:16:52.827Z,53.34
2022-08-14T04:19:23.880Z,53.15
2022-08-14T04:22:02.349Z,53.00
2022-08-14T04:24:38.002Z,53.22
2022-08-14T04:27:10.202Z,53.57
2022-08-14T04:29:45.091Z,53.56
2022-08-14T04:33:02.396Z,53.47
2022-08-14T04:35:01.295Z,53.41
2022-08-14T04:37:53.954Z,53.33
2022-08-14T04:40:40.773Z,53.28
2022-08-14T04:43:32.469Z,53.32
2022-08-14T04:46:56.110Z,53.33
2022-08-14T04:49:07.947Z,52.95
2022-08-14T04:51:46.359Z,52.85
2022-08-14T04:54:13.965Z,52.93
2022-08-14T04:56:44.330Z,53.16
2022-08-14T04:59:12.803Z,53.28
2022-08-14T05:01:47.806Z,53.30
2022-08-14T05:04:21.752Z,52.84
2022-08-14T05:06:53.537Z,53.49
2022-08-14T05:09:23.124Z,52.71
2022-08-14T05:11:51.464Z,52.73
2022-08-14T05:14:45.357Z,52.71
2022-08-14T05:17:11.875Z,52.39
2022-08-14T05:19:44.379Z,52.25
2022-08-14T05:22:16.640Z,51.73
2022-08-14T05:24:51.753Z,50.80
2022-08-14T05:27:22.568Z,51.14
2022-08-14T05:29:53.005Z,51.36
2022-08-14T05:32:21.157Z,51.54
2022-08-14T05:34:48.507Z,51.02
2022-08-14T05:37:15.847Z,51.67
2022-08-14T05:39:43.755Z,50.78
2022-08-14T05:42:22.079Z,50.83
2022-08-14T05:44:55.761Z,50.79
2022-08-14T05:47:24.270Z,51.04
2022-08-14T05:49:59.793Z,50.78
2022-08-14T05:52:38.942Z,50.38
2022-08-14T05:55:09.300Z,50.13
2022-08-14T05:57:53.929Z,48.89
2022-08-14T06:00:29.891Z,48.89
2022-08-14T06:03:00.541Z,48.31
2022-08-14T06:05:29.193Z,48.55
2022-08-14T06:08:00.452Z,48.37
2022-08-14T06:10:29.985Z,48.32
2022-08-14T06:12:58.567Z,47.48
2022-08-14T06:15:29.999Z,46.33
2022-08-14T06:18:00.558Z,45.88
2022-08-14T06:20:30.183Z,46.53
2022-08-14T06:22:59.229Z,46.57
2022-08-14T06:25:27.041Z,45.78
2022-08-14T06:27:55.863Z,45.30
2022-08-14T06:30:30.231Z,45.25
2022-08-14T06:33:15.785Z,44.61
2022-08-14T06:35:43.905Z,44.73
2022-08-14T06:38:17.528Z,43.24
2022-08-14T06:40:46.099Z,43.63
2022-08-14T06:43:15.491Z,42.32
2022-08-14T06:45:50.093Z,41.87
2022-08-14T06:48:23.862Z,40.73
2022-08-14T06:50:53.762Z,42.45
2022-08-14T06:53:21.766Z,41.27
2022-08-14T06:55:58.066Z,40.74
2022-08-14T06:58:30.810Z,40.27
2022-08-14T07:01:24.942Z,39.76
2022-08-14T07:04:23.676Z,39.62
2022-08-14T07:06:55.530Z,39.66
2022-08-14T07:09:27.967Z,39.14
2022-08-14T07:11:56.374Z,38.91
2022-08-14T07:14:25.239Z,39.11
2022-08-14T07:16:53.914Z,38.06
2022-08-14T07:19:21.523Z,37.94
2022-08-14T07:21:50.266Z,37.52
2022-08-14T07:24:21.969Z,37.21
2022-08-14T07:26:53.971Z,37.14
2022-08-14T07:29:26.023Z,38.07
2022-08-14T07:31:54.066Z,37.70
2022-08-14T07:34:36.480Z,37.14
2022-08-14T07:37:08.641Z,37.58
2022-08-14T07:39:37.327Z,38.49
2022-08-14T07:42:06.768Z,36.95
2022-08-14T07:44:45.886Z,36.61
2022-08-14T07:47:16.762Z,36.33
2022-08-14T07:49:55.551Z,36.67
2022-08-14T07:52:30.498Z,36.72
2022-08-14T07:55:00.383Z,36.51
2022-08-14T07:57:28.175Z,35.68
2022-08-14T07:59:55.519Z,35.73
2022-08-14T08:02:23.877Z,35.92
2022-08-14T08:04:59.448Z,36.90
2022-08-14T08:07:30.023Z,37.42
2022-08-14T08:10:00.901Z,36.88
2022-08-14T08:12:32.313Z,37.48
2022-08-14T08:15:07.935Z,36.26
2022-08-14T08:17:53.539Z,37.24
2022-08-14T08:20:27.784Z,34.91
2022-08-14T08:23:00.654Z,36.21
2022-08-14T08:25:40.074Z,36.86
2022-08-14T08:28:25.056Z,35.32
2022-08-14T08:30:56.997Z,35.60
2022-08-14T08:33:32.101Z,36.33
2022-08-14T08:36:03.474Z,35.47
2022-08-14T08:39:18.185Z,35.63
2022-08-14T08:41:18.639Z,34.75
2022-08-14T08:43:47.051Z,34.45
2022-08-14T08:46:23.609Z,34.44
2022-08-14T08:51:33.488Z,33.78
2022-08-14T08:54:15.364Z,33.52
2022-08-14T08:56:52.059Z,33.90
2022-08-14T08:59:20.908Z,34.12
2022-08-14T09:02:10.643Z,33.74
2022-08-14T09:04:45.884Z,34.00
2022-08-14T09:07:28.014Z,33.94
2022-08-14T09:09:58.884Z,34.19
2022-08-14T09:12:32.362Z,33.51
2022-08-14T09:15:02.416Z,33.15
2022-08-14T09:17:29.947Z,32.58
2022-08-14T09:20:02.174Z,32.91
2022-08-14T09:22:34.951Z,32.58
2022-08-14T09:25:07.642Z,32.47
2022-08-14T09:27:37.795Z,33.42
2022-08-14T09:30:30.723Z,31.93
2022-08-14T09:33:15.738Z,31.70
2022-08-14T09:35:57.199Z,31.68
2022-08-14T09:38:36.438Z,31.08
2022-08-14T09:41:23.963Z,30.71
2022-08-14T09:44:21.466Z,30.06
2022-08-14T09:46:53.975Z,29.26
2022-08-14T09:49:40.041Z,29.07
2022-08-14T09:52:33.455Z,28.80
2022-08-14T09:55:02.836Z,27.39
2022-08-14T09:57:31.542Z,27.41
2022-08-14T09:59:59.134Z,27.85
2022-08-14T10:02:45.559Z,27.34
2022-08-14T10:05:13.962Z,27.38
2022-08-14T10:07:53.651Z,27.18
2022-08-14T10:10:35.547Z,27.39
2022-08-14T10:13:07.138Z,27.48
2022-08-14T10:15:45.875Z,27.75
2022-08-14T10:18:18.308Z,27.01
2022-08-14T10:21:00.859Z,27.40
2022-08-14T10:23:40.370Z,26.26
2022-08-14T10:26:08.851Z,25.74
2022-08-14T10:29:17.541Z,24.72
2022-08-14T10:31:43.260Z,24.09
2022-08-14T10:34:18.317Z,24.14
2022-08-14T10:36:50.169Z,24.33
2022-08-14T10:39:29.949Z,23.85
2022-08-14T10:42:16.442Z,24.43
2022-08-14T10:44:49.008Z,24.84
2022-08-14T10:47:41.385Z,24.51
2022-08-14T10:50:12.126Z,24.31
2022-08-14T10:52:43.834Z,23.69
2022-08-14T10:55:16.453Z,24.06
2022-08-14T10:58:01.946Z,24.18
2022-08-14T11:00:35.538Z,23.81
2022-08-14T11:03:11.013Z,23.25
2022-08-14T11:05:47.334Z,24.22
2022-08-14T11:08:17.692Z,24.31
2022-08-14T11:10:52.685Z,23.20
2022-08-14T11:13:24.103Z,22.85
2022-08-14T11:15:52.653Z,21.52
2022-08-14T11:18:32.303Z,21.48
2022-08-14T11:21:06.527Z,21.05
2022-08-14T11:23:37.902Z,21.15
2022-08-14T11:26:08.016Z,21.83
2022-08-14T11:28:47.117Z,22.00
2022-08-14T11:31:23.201Z,22.09
2022-08-14T11:33:57.795Z,22.55
2022-08-14T11:36:35.184Z,21.97
2022-08-14T11:39:34.774Z,22.54
2022-08-14T11:42:55.326Z,22.76
2022-08-14T11:45:00.350Z,20.61
2022-08-14T11:47:35.094Z,20.63
2022-08-14T11:50:13.251Z,21.01
2022-08-14T11:52:40.788Z,22.75
2022-08-14T11:55:12.772Z,22.74
2022-08-14T11:57:41.491Z,21.89
2022-08-14T12:00:19.741Z,21.46
2022-08-14T12:03:02.965Z,22.03
2022-08-14T12:05:39.651Z,22.26
2022-08-14T12:08:11.106Z,23.90
2022-08-14T12:10:43.454Z,23.29
2022-08-14T12:13:19.128Z,23.17
2022-08-14T12:15:57.567Z,22.78
2022-08-14T12:18:35.853Z,22.69
2022-08-14T12:21:19.620Z,21.90
2022-08-14T12:23:50.375Z,21.68
2022-08-14T12:26:39.302Z,21.26
2022-08-14T12:29:14.453Z,21.50
2022-08-14T12:31:47.414Z,20.73
2022-08-14T12:34:22.755Z,20.25
2022-08-14T12:37:05.586Z,20.86
2022-08-14T12:39:40.123Z,20.80
2022-08-14T12:42:08.067Z,21.44
2022-08-14T12:44:38.279Z,21.37
2022-08-14T12:47:15.161Z,20.94
2022-08-14T12:49:54.248Z,21.22
2022-08-14T12:52:41.535Z,20.36
2022-08-14T12:55:17.654Z,21.47
2022-08-14T12:57:49.388Z,21.24
2022-08-14T13:00:25.446Z,20.17
2022-08-14T13:02:55.809Z,20.35
2022-08-14T13:05:30.122Z,20.59
2022-08-14T13:07:59.129Z,21.34
2022-08-14T13:10:46.909Z,22.04
2022-08-14T13:13:17.552Z,22.70
2022-08-14T13:15:47.749Z,22.78
2022-08-14T13:18:17.019Z,24.12
2022-08-14T13:20:51.477Z,23.68
2022-08-14T13:23:30.691Z,23.19
2022-08-14T13:26:00.858Z,23.79
2022-08-14T13:28:30.296Z,24.10
2022-08-14T13:31:11.331Z,24.50
2022-08-14T13:33:40.779Z,24.67
2022-08-14T13:36:23.628Z,25.27
2022-08-14T13:38:53.654Z,24.45
2022-08-14T13:41:31.546Z,24.13
2022-08-14T13:44:00.586Z,24.40
2022-08-14T13:46:28.415Z,24.58
2022-08-14T13:48:57.640Z,24.86
2022-08-14T13:51:32.091Z,24.39
2022-08-14T13:54:10.803Z,24.00
2022-08-14T13:56:40.420Z,23.78
2022-08-14T13:59:09.194Z,23.95
2022-08-14T14:01:39.203Z,24.28
2022-08-14T14:04:19.322Z,24.77
2022-08-14T14:06:49.779Z,24.02
2022-08-14T14:09:27.147Z,24.53
2022-08-14T14:12:00.522Z,24.38
2022-08-14T14:14:29.731Z,24.79
2022-08-14T14:17:13.700Z,24.68
2022-08-14T14:19:46.400Z,24.58
2022-08-14T14:23:00.938Z,24.33
2022-08-14T14:25:06.010Z,23.94
2022-08-14T14:27:41.516Z,24.86
2022-08-14T14:30:31.961Z,24.71
2022-08-14T14:33:05.150Z,24.78
2022-08-14T14:35:43.884Z,24.77
2022-08-14T14:38:17.547Z,24.46
2022-08-14T14:41:00.483Z,23.76
2022-08-14T14:43:28.815Z,23.00
2022-08-14T14:45:56.614Z,23.49
2022-08-14T14:48:28.180Z,23.15
2022-08-14T14:50:58.368Z,22.29
2022-08-14T14:53:28.345Z,21.97
2022-08-14T14:56:47.200Z,22.35
2022-08-14T14:58:46.840Z,22.15
2022-08-14T15:01:17.421Z,22.88
2022-08-14T15:03:46.059Z,22.59
2022-08-14T15:06:17.679Z,21.93
2022-08-14T15:08:55.948Z,21.85
2022-08-14T15:11:25.398Z,21.33
2022-08-14T15:13:53.514Z,21.14
2022-08-14T15:16:21.431Z,21.78
2022-08-14T15:18:48.993Z,21.67
2022-08-14T15:21:16.924Z,21.55
2022-08-14T15:23:46.057Z,21.67
2022-08-14T15:26:23.981Z,21.33
2022-08-14T15:29:03.221Z,21.33
2022-08-14T15:31:37.103Z,20.90
2022-08-14T15:34:42.191Z,21.67
2022-08-14T15:36:59.889Z,21.45
2022-08-14T15:39:29.499Z,21.82
2022-08-14T15:42:02.593Z,20.19
2022-08-14T15:44:34.319Z,20.53
2022-08-14T15:47:06.982Z,20.61
2022-08-14T15:49:37.219Z,21.16
2022-08-14T15:52:07.196Z,21.62
2022-08-14T15:54:35.555Z,21.72
2022-08-14T15:57:09.181Z,21.78
2022-08-14T15:59:56.822Z,21.77
2022-08-14T16:02:27.839Z,21.49
2022-08-14T16:04:56.243Z,21.60
2022-08-14T16:07:25.235Z,21.99
2022-08-14T16:10:25.367Z,21.72
2022-08-14T16:12:47.558Z,21.59
2022-08-14T16:15:16.829Z,21.89
2022-08-14T16:17:46.554Z,21.86
2022-08-14T16:20:42.348Z,21.66
2022-08-14T16:23:10.384Z,21.89
2022-08-14T16:25:42.245Z,22.49
2022-08-14T16:28:27.046Z,22.25
2022-08-14T16:30:55.199Z,22.28
2022-08-14T16:33:56.831Z,22.26
2022-08-14T16:36:29.940Z,22.64
2022-08-14T16:39:04.475Z,23.26
2022-08-14T16:41:32.008Z,24.06
2022-08-14T16:44:01.723Z,25.19
2022-08-14T16:46:32.458Z,26.72
2022-08-14T16:49:01.925Z,27.56
2022-08-14T16:51:30.924Z,27.69
2022-08-14T16:54:04.725Z,28.36
2022-08-14T16:56:48.592Z,28.49
2022-08-14T16:59:20.198Z,28.68
2022-08-14T17:02:00.760Z,28.88
2022-08-14T17:04:34.651Z,28.73
2022-08-14T17:07:15.338Z,28.95
2022-08-14T17:09:52.963Z,29.06
2022-08-14T17:12:35.232Z,29.27
2022-08-14T17:15:15.022Z,29.39
2022-08-14T17:17:57.917Z,29.73
2022-08-14T17:20:53.971Z,30.38
2022-08-14T17:23:17.071Z,30.89
2022-08-14T17:25:50.903Z,30.95
2022-08-14T17:28:51.038Z,30.80
2022-08-14T17:31:08.432Z,30.75
2022-08-14T17:33:44.132Z,30.94
2022-08-14T17:36:21.419Z,31.09
2022-08-14T17:39:13.378Z,31.28
2022-08-14T17:41:47.684Z,31.29
2022-08-14T17:44:45.115Z,31.70
2022-08-14T17:47:18.207Z,31.86
2022-08-14T17:49:52.158Z,32.02
2022-08-14T17:52:34.280Z,32.22
2022-08-14T17:55:06.718Z,32.27
2022-08-14T17:57:35.195Z,32.38
2022-08-14T18:00:04.073Z,32.26
2022-08-14T18:02:33.800Z,32.55
2022-08-14T18:05:03.128Z,32.75
2022-08-14T18:07:59.342Z,32.91
2022-08-14T18:10:52.009Z,33.27
2022-08-14T18:13:10.744Z,33.85
2022-08-14T18:15:44.962Z,33.84
2022-08-14T18:18:19.390Z,33.64
2022-08-14T18:21:39.556Z,33.77
2022-08-14T18:23:42.162Z,33.89
2022-08-14T18:26:37.540Z,34.07
2022-08-14T18:28:59.186Z,34.14
2022-08-14T18:31:26.686Z,34.31
2022-08-14T18:34:31.261Z,34.33
2022-08-14T18:37:13.856Z,34.57
2022-08-14T18:40:01.883Z,34.51
2022-08-14T18:42:40.583Z,34.97
2022-08-14T18:45:28.928Z,35.14
2022-08-14T18:48:33.556Z,35.17
2022-08-14T18:51:13.244Z,35.44
2022-08-14T18:53:52.088Z,35.41
2022-08-14T18:56:55.074Z,35.56
2022-08-14T18:59:43.237Z,35.68
2022-08-14T19:02:30.571Z,35.99
2022-08-14T19:05:02.343Z,36.17
2022-08-14T19:07:33.428Z,36.20
2022-08-14T19:10:06.636Z,36.53
2022-08-14T19:12:52.953Z,36.77
2022-08-14T19:15:28.945Z,36.76
2022-08-14T19:18:13.814Z,36.95
2022-08-14T19:20:46.479Z,36.99
2022-08-14T19:23:21.285Z,37.16
2022-08-14T19:25:57.095Z,37.37
2022-08-14T19:28:33.527Z,37.42
2022-08-14T19:31:26.082Z,37.71
2022-08-14T19:34:07.172Z,37.67
2022-08-14T19:37:04.295Z,37.83
2022-08-14T19:39:53.244Z,38.03
2022-08-14T19:42:30.598Z,38.38
2022-08-14T19:44:58.371Z,38.61
2022-08-14T19:47:38.795Z,38.75
2022-08-14T19:50:38.283Z,38.83
2022-08-14T19:53:11.111Z,38.90
2022-08-14T19:55:45.723Z,38.99
2022-08-14T19:58:13.683Z,39.27
2022-08-14T20:00:51.989Z,39.40
2022-08-14T20:03:24.131Z,39.43
2022-08-14T20:06:05.516Z,39.31
2022-08-14T20:11:00.561Z,39.61
2022-08-14T20:12:02.255Z,39.78
2022-08-14T20:14:27.970Z,40.10
2022-08-14T20:17:06.392Z,39.97
2022-08-14T20:19:37.617Z,40.14
2022-08-14T20:22:36.785Z,40.46
2022-08-14T20:25:12.087Z,40.58
2022-08-14T20:27:44.109Z,40.66
2022-08-14T20:30:34.725Z,40.55
2022-08-14T20:33:07.495Z,40.34
2022-08-14T20:35:42.152Z,40.20
2022-08-14T20:38:33.329Z,40.11
2022-08-14T20:41:06.552Z,40.01
2022-08-14T20:43:55.965Z,40.03
2022-08-14T20:46:31.021Z,40.18
2022-08-14T20:49:03.546Z,40.20
2022-08-14T20:51:47.521Z,40.50
2022-08-14T20:54:34.721Z,40.64
2022-08-14T20:57:09.274Z,40.84
2022-08-14T20:59:43.306Z,41.30
2022-08-14T21:02:34.770Z,41.50
2022-08-14T21:05:19.615Z,41.38
2022-08-14T21:07:50.853Z,41.38
2022-08-14T21:10:35.280Z,41.40
2022-08-14T21:13:25.907Z,41.49
2022-08-14T21:15:57.915Z,41.65
2022-08-14T21:18:31.875Z,41.46
2022-08-14T21:21:06.924Z,41.62
2022-08-14T21:23:54.114Z,41.71
2022-08-14T21:26:51.242Z,41.68
2022-08-14T21:29:19.029Z,41.68
2022-08-14T21:31:55.596Z,41.87
2022-08-14T21:34:31.643Z,41.95
2022-08-14T21:37:07.785Z,41.97
2022-08-14T21:39:38.015Z,41.95
2022-08-14T21:42:06.165Z,42.09
2022-08-14T21:44:42.740Z,42.23
2022-08-14T21:47:12.692Z,42.33
2022-08-14T21:49:43.170Z,42.38
2022-08-14T21:52:49.367Z,42.49
2022-08-14T21:55:09.312Z,42.27
2022-08-14T21:58:44.501Z,42.20
2022-08-14T22:00:39.776Z,42.30
2022-08-14T22:03:19.099Z,42.25
2022-08-14T22:05:53.383Z,42.30
2022-08-14T22:08:26.986Z,42.34
2022-08-14T22:10:55.168Z,42.29
2022-08-14T22:13:26.437Z,42.40
2022-08-14T22:15:59.725Z,42.70
2022-08-14T22:18:29.731Z,42.63
2022-08-14T22:20:57.522Z,42.76
2022-08-14T22:23:26.097Z,42.58
2022-08-14T22:25:55.059Z,42.61
2022-08-14T22:28:33.159Z,42.65
2022-08-14T22:31:10.909Z,42.60
2022-08-14T22:33:39.247Z,42.63
2022-08-14T22:36:27.408Z,42.58
2022-08-14T22:39:01.702Z,42.78
2022-08-14T22:41:42.169Z,42.79
2022-08-14T22:44:14.675Z,42.77
2022-08-14T22:46:43.271Z,43.09
2022-08-14T22:49:16.216Z,43.15
2022-08-14T22:51:58.956Z,43.50
2022-08-14T22:54:52.638Z,43.68
2022-08-14T22:57:15.949Z,43.84
2022-08-14T22:59:43.403Z,43.70
2022-08-14T23:02:22.222Z,43.85
2022-08-14T23:04:59.287Z,43.84
2022-08-14T23:08:56.774Z,43.96
2022-08-14T23:10:31.775Z,43.84
2022-08-14T23:13:03.586Z,43.95
2022-08-14T23:15:32.518Z,44.13
2022-08-14T23:18:03.281Z,44.14
2022-08-14T23:20:33.663Z,44.24
2022-08-14T23:23:11.773Z,44.18
2022-08-14T23:25:58.388Z,44.19
2022-08-14T23:28:33.633Z,44.41
2022-08-14T23:31:34.331Z,44.74
2022-08-14T23:34:08.716Z,44.89
2022-08-14T23:36:53.671Z,44.92
2022-08-14T23:39:30.173Z,44.98
2022-08-14T23:42:09.167Z,44.97
2022-08-14T23:44:38.890Z,44.83
2022-08-14T23:47:11.598Z,44.94
2022-08-14T23:50:01.297Z,45.04
2022-08-14T23:52:51.605Z,45.05
2022-08-14T23:55:34.308Z,44.98
2022-08-14T23:58:02.601Z,44.96
